Ashland, OR

1:53 AM PDT on October 26, 2014 (GMT -0700)
Sexton Summit | Change Station
CLOSE
Current Station
Airport
Location: Sexton Summit,
Elevation: 3839 ft
Nearby Weather Stations

Elev 3839 ft 42.60 °N, 123.36 °W | Updated 19 minutes ago

Mostly Cloudy
Mostly Cloudy
38 °F
Feels Like 30 °F
N
13
Wind Variable Wind from South
Gusts 20 mph

Today
High -- | Low -- °F
--% Chance of Precip.
Yesterday
High -- | Low -- °F
Precip. -- in
7:36 AM 6:12 PM
Waxing Crescent, 7% visible
Pressure 30.07 in
Visibility 0.2 miles
Clouds
Windchill 30 °F
Dew Point 38 °F
Humidity 100%
Rainfall 0.00 in
Snow Depth Not available.
UV Not available.
Pollen .40 out of 12
Air Quality Not available.
Flu Activity Sporadic
SPECI KSXT 260834Z AUTO 19011G17KT 1/4SM FG VV002 03/03 A3007 RMK AO2 T00330033

More Conditions Fewer Conditions

Pressure 30.07 in
Visibility 0.2 miles
Clouds
Windchill 30 °F
Dew Point 38 °F
Humidity 100%
Rainfall 0.00 in
Snow Depth Not available.
UV Not available.
Pollen .40 out of 12
Air Quality Not available.
Flu Activity Sporadic
SPECI KSXT 260834Z AUTO 19011G17KT 1/4SM FG VV002 03/03 A3007 RMK AO2 T00330033

More Conditions Fewer Conditions

10-Day Weather Forecast

Almanac

Astronomy

Oct. 26, 2014 Rise Set
Actual Time 7:36 AM PDT 6:12 PM PDT
Civil Twilight 7:07 AM PDT 6:40 PM PDT
Nautical Twilight 6:34 AM PDT 7:13 PM PDT
Astronomical Twilight 6:02 AM PDT 7:45 PM PDT
Moon 10:21 AM PDT 8:26 PM PDT
Length of Visible Light 11h 33m
Length of Day
10h 35m
Tomorrow will be 2m 36s shorter.
Waxing Crescent, 7% of the Moon is Illuminated
Today
Waxing Crescent
Oct 30
First Quarter
Nov 6
Full
Nov 14
Last Quarter
Nov 22
New

Today's Extremes

State Highs State Lows

Community

WunderPhotos

Upload Photos

1,765,127 photos uploaded!

Nearby

Snow Depth

Station Depth Elevation
Big Red Mountain 0 in 6250 ft
Fish Lake 0 in 4665 ft
Billie Creek Divide 0 in 5300 ft
Fourmile Lake 0 in 6000 ft
Cold Springs Camp 0 in 6100 ft

Earthquake Activity

City Distance Mag. Time & Date
No recent earthquake activity has been reported nearby.
Minimum magnitude displayed is 2.5.

Coastal Water Temperatures

Place Temperature
No Stations Reporting

Nearby Weather Stations